createdAt,value
2019-03-20T00:01:30.381Z,13.20
2019-03-20T00:03:50.870Z,13.70
2019-03-20T00:06:11.714Z,12.93
2019-03-20T00:08:32.818Z,12.65
2019-03-20T00:10:53.362Z,12.40
2019-03-20T00:13:13.982Z,11.45
2019-03-20T00:15:34.648Z,10.98
2019-03-20T00:17:55.256Z,12.03
2019-03-20T00:20:16.023Z,9.93
2019-03-20T00:22:36.639Z,11.55
2019-03-20T00:24:57.321Z,12.07
2019-03-20T00:27:17.904Z,11.95
2019-03-20T00:29:38.539Z,12.33
2019-03-20T00:31:59.227Z,11.90
2019-03-20T00:34:19.871Z,11.08
2019-03-20T00:36:41.531Z,10.35
2019-03-20T00:39:02.044Z,11.12
2019-03-20T00:41:23.821Z,11.00
2019-03-20T00:43:44.456Z,11.10
2019-03-20T00:46:05.073Z,11.18
2019-03-20T00:48:25.608Z,10.40
2019-03-20T00:50:46.101Z,10.53
2019-03-20T00:53:06.798Z,10.50
2019-03-20T00:55:27.275Z,10.55
2019-03-20T00:57:48.851Z,10.05
2019-03-20T01:00:20.672Z,10.40
2019-03-20T01:02:41.302Z,9.80
2019-03-20T01:05:12.132Z,9.10
2019-03-20T01:07:25.603Z,9.63
2019-03-20T01:09:46.168Z,8.43
2019-03-20T01:12:06.682Z,8.28
2019-03-20T01:14:39.327Z,8.88
2019-03-20T01:16:59.654Z,5.80
2019-03-20T01:19:20.235Z,8.55
2019-03-20T01:21:40.775Z,7.50
2019-03-20T01:24:01.417Z,9.00
2019-03-20T01:26:21.962Z,8.10
2019-03-20T01:28:42.452Z,7.70
2019-03-20T01:31:03.144Z,8.93
2019-03-20T01:33:23.661Z,9.93
2019-03-20T01:35:44.304Z,9.05
2019-03-20T01:38:05.476Z,8.98
2019-03-20T01:40:26.062Z,9.60
2019-03-20T01:42:46.681Z,8.20
2019-03-20T01:45:07.841Z,8.98
2019-03-20T01:47:28.909Z,7.90
2019-03-20T01:49:49.468Z,7.37
2019-03-20T01:52:11.108Z,8.10
2019-03-20T01:54:31.859Z,8.48
2019-03-20T01:56:52.365Z,8.45
2019-03-20T01:59:13.019Z,8.70
2019-03-20T02:01:33.625Z,8.93
2019-03-20T02:03:54.197Z,8.23
2019-03-20T02:06:15.060Z,8.55
2019-03-20T02:08:35.739Z,8.50
2019-03-20T02:10:56.366Z,8.20
2019-03-20T02:13:16.967Z,7.80
2019-03-20T02:15:39.245Z,8.20
2019-03-20T02:17:59.683Z,6.30
2019-03-20T02:20:20.915Z,7.85
2019-03-20T02:22:41.560Z,6.67
2019-03-20T02:25:02.114Z,7.70
2019-03-20T02:27:23.709Z,7.20
2019-03-20T02:29:44.177Z,6.62
2019-03-20T02:32:05.124Z,7.08
2019-03-20T02:34:26.289Z,6.58
2019-03-20T02:36:49.195Z,7.20
2019-03-20T02:39:09.154Z,6.50
2019-03-20T02:41:29.913Z,6.47
2019-03-20T02:43:50.531Z,6.47
2019-03-20T02:46:11.100Z,6.72
2019-03-20T02:48:31.705Z,6.95
2019-03-20T02:50:52.362Z,7.03
2019-03-20T02:53:12.996Z,6.33
2019-03-20T02:55:33.552Z,6.60
2019-03-20T02:57:54.156Z,6.87
2019-03-20T03:00:18.627Z,7.28
2019-03-20T03:02:39.286Z,6.62
2019-03-20T03:04:59.913Z,6.87
2019-03-20T03:07:21.466Z,6.42
2019-03-20T03:09:42.075Z,6.97
2019-03-20T03:12:04.020Z,6.17
2019-03-20T03:14:24.521Z,5.97
2019-03-20T03:16:45.006Z,6.17
2019-03-20T03:19:05.547Z,5.90
2019-03-20T03:21:26.235Z,5.05
2019-03-20T03:23:47.802Z,5.85
2019-03-20T03:26:20.977Z,5.92
2019-03-20T03:28:40.981Z,4.90
2019-03-20T03:31:01.499Z,6.10
2019-03-20T03:33:22.106Z,5.90
2019-03-20T03:35:43.715Z,5.67
2019-03-20T03:38:04.513Z,5.67
2019-03-20T03:40:25.255Z,5.78
2019-03-20T03:42:46.257Z,5.45
2019-03-20T03:45:10.183Z,5.47
2019-03-20T03:47:31.846Z,5.40
2019-03-20T03:49:52.359Z,4.83
2019-03-20T03:52:13.136Z,5.25
2019-03-20T03:54:33.816Z,5.45
2019-03-20T03:56:54.714Z,5.22
2019-03-20T03:59:15.410Z,5.60
2019-03-20T04:01:36.947Z,5.53
2019-03-20T04:03:57.485Z,6.03
2019-03-20T04:06:18.022Z,5.37
2019-03-20T04:08:38.468Z,4.83
2019-03-20T04:10:59.113Z,5.25
2019-03-20T04:13:20.729Z,5.55
2019-03-20T04:15:41.399Z,4.95
2019-03-20T04:18:02.087Z,5.47
2019-03-20T04:20:25.389Z,5.78
2019-03-20T04:22:45.878Z,4.90
2019-03-20T04:25:08.050Z,7.35
2019-03-20T04:27:28.282Z,3.52
2019-03-20T04:29:48.922Z,5.25
2019-03-20T04:32:09.427Z,4.90
2019-03-20T04:34:29.895Z,4.60
2019-03-20T04:36:50.519Z,5.30
2019-03-20T04:39:11.146Z,5.20
2019-03-20T04:41:31.649Z,5.30
2019-03-20T04:43:52.256Z,5.40
2019-03-20T04:46:12.794Z,5.25
2019-03-20T04:48:33.413Z,4.55
2019-03-20T04:50:54.380Z,4.87
2019-03-20T04:53:14.859Z,4.85
2019-03-20T04:55:35.797Z,5.90
2019-03-20T04:57:57.885Z,6.05
2019-03-20T05:00:20.605Z,3.80
2019-03-20T05:02:40.935Z,4.92
2019-03-20T05:05:01.379Z,4.58
2019-03-20T05:07:21.952Z,5.72
2019-03-20T05:09:43.468Z,5.40
2019-03-20T05:12:04.071Z,5.17
2019-03-20T05:14:24.601Z,4.75
2019-03-20T05:16:45.219Z,5.35
2019-03-20T05:19:05.920Z,5.12
2019-03-20T05:21:27.630Z,5.20
2019-03-20T05:23:49.257Z,4.83
2019-03-20T05:26:09.828Z,4.95
2019-03-20T05:28:30.377Z,4.95
2019-03-20T05:30:53.883Z,4.42
2019-03-20T05:33:14.345Z,5.33
2019-03-20T05:35:34.890Z,4.78
2019-03-20T05:37:55.450Z,5.17
2019-03-20T05:40:18.110Z,4.35
2019-03-20T05:42:38.374Z,6.00
2019-03-20T05:44:59.814Z,5.22
2019-03-20T05:47:20.346Z,5.30
2019-03-20T05:50:00.325Z,5.58
2019-03-20T05:52:20.760Z,5.90
2019-03-20T05:54:47.005Z,5.10
2019-03-20T05:57:07.567Z,5.58
2019-03-20T05:59:28.122Z,5.90
2019-03-20T06:01:48.735Z,6.78
2019-03-20T06:04:09.382Z,5.75
2019-03-20T06:06:30.097Z,5.45
2019-03-20T06:08:50.635Z,5.28
2019-03-20T06:11:11.169Z,5.85
2019-03-20T06:13:31.792Z,5.00
2019-03-20T06:15:52.330Z,4.40
2019-03-20T06:18:12.880Z,5.90
2019-03-20T06:20:34.513Z,5.40
2019-03-20T06:22:55.182Z,6.42
2019-03-20T06:25:16.668Z,5.80
2019-03-20T06:27:37.184Z,5.80
2019-03-20T06:29:57.855Z,5.50
2019-03-20T06:32:18.451Z,5.80
2019-03-20T06:34:38.980Z,6.65
2019-03-20T06:36:59.537Z,5.35
2019-03-20T06:39:20.169Z,5.17
2019-03-20T06:41:42.414Z,4.85
2019-03-20T06:44:03.018Z,4.65
2019-03-20T06:46:23.543Z,5.05
2019-03-20T06:48:44.010Z,4.40
2019-03-20T06:51:04.040Z,6.00
2019-03-20T06:53:24.575Z,5.85
2019-03-20T06:55:45.123Z,5.62
2019-03-20T06:58:05.774Z,6.00
2019-03-20T07:00:38.641Z,5.80
2019-03-20T07:03:00.162Z,5.37
2019-03-20T07:05:56.639Z,5.33
2019-03-20T07:08:17.719Z,5.57
2019-03-20T07:10:55.917Z,4.97
2019-03-20T07:13:16.779Z,4.60
2019-03-20T07:15:37.015Z,2.90
2019-03-20T07:17:57.256Z,2.90
2019-03-20T07:20:17.470Z,2.53
2019-03-20T07:22:37.864Z,2.73
2019-03-20T07:24:58.669Z,2.73
2019-03-20T07:27:18.942Z,2.60
2019-03-20T07:29:39.178Z,1.97
2019-03-20T07:31:59.531Z,1.77
2019-03-20T07:34:19.869Z,2.07
2019-03-20T07:36:41.465Z,2.20
2019-03-20T07:39:01.523Z,2.80
2019-03-20T07:41:23.032Z,2.80
2019-03-20T07:43:43.461Z,2.20
2019-03-20T07:46:04.048Z,2.20
2019-03-20T07:48:24.610Z,2.70
2019-03-20T07:50:45.220Z,1.85
2019-03-20T07:53:05.418Z,1.98
2019-03-20T07:55:25.390Z,2.52
2019-03-20T07:57:46.109Z,3.08
2019-03-20T08:00:10.229Z,2.12
2019-03-20T08:02:30.288Z,2.10
2019-03-20T08:04:50.908Z,2.15
2019-03-20T08:07:10.852Z,2.50
2019-03-20T08:09:31.387Z,2.22
2019-03-20T08:11:52.014Z,2.20
2019-03-20T08:14:12.545Z,2.10
2019-03-20T08:16:33.177Z,2.00
2019-03-20T08:18:53.217Z,2.10
2019-03-20T08:21:13.718Z,2.20
2019-03-20T08:23:34.374Z,2.17
2019-03-20T08:25:54.900Z,2.12
2019-03-20T08:28:15.417Z,2.05
2019-03-20T08:30:36.030Z,2.30
2019-03-20T08:32:56.725Z,1.85
2019-03-20T08:35:17.283Z,2.25
2019-03-20T08:37:38.105Z,2.35
2019-03-20T08:39:58.724Z,2.55
2019-03-20T08:44:57.991Z,2.55
2019-03-20T08:47:27.659Z,2.70
2019-03-20T08:49:48.255Z,1.92
2019-03-20T08:52:08.835Z,2.30
2019-03-20T08:54:29.358Z,2.15
2019-03-20T08:56:50.248Z,2.00
2019-03-20T08:59:12.209Z,2.05
2019-03-20T09:01:32.786Z,2.33
2019-03-20T09:03:53.557Z,2.47
2019-03-20T09:06:14.190Z,1.90
2019-03-20T09:08:34.701Z,2.20
2019-03-20T09:10:55.240Z,2.37
2019-03-20T09:13:15.741Z,2.10
2019-03-20T09:15:36.335Z,2.10
2019-03-20T09:17:56.855Z,2.10
2019-03-20T09:20:22.443Z,2.05
2019-03-20T09:22:42.942Z,2.20
2019-03-20T09:25:04.760Z,1.77
2019-03-20T09:27:25.205Z,1.85
2019-03-20T09:29:45.643Z,1.40
2019-03-20T09:32:06.206Z,2.65
2019-03-20T09:34:26.863Z,1.90
2019-03-20T09:36:47.385Z,1.87
2019-03-20T09:39:08.184Z,2.08
2019-03-20T09:41:28.843Z,1.62
2019-03-20T09:43:50.464Z,2.00
2019-03-20T09:46:11.004Z,1.85
2019-03-20T09:48:31.513Z,1.95
2019-03-20T09:50:52.098Z,1.90
2019-03-20T09:53:12.571Z,1.37
2019-03-20T09:55:33.168Z,1.60
2019-03-20T09:57:54.741Z,2.00
2019-03-20T10:00:23.497Z,2.25
2019-03-20T10:02:44.165Z,1.80
2019-03-20T10:05:06.365Z,1.87
2019-03-20T10:07:26.979Z,2.08
2019-03-20T10:09:47.543Z,1.62
2019-03-20T10:12:08.239Z,1.77
2019-03-20T10:14:28.779Z,1.80
2019-03-20T10:16:49.327Z,1.90
2019-03-20T10:19:09.885Z,1.90
2019-03-20T10:21:30.452Z,1.90
2019-03-20T10:23:50.954Z,1.72
2019-03-20T10:26:11.613Z,2.05
2019-03-20T10:28:32.283Z,1.95
2019-03-20T10:30:52.882Z,1.47
2019-03-20T10:33:13.438Z,1.15
2019-03-20T10:35:34.001Z,1.72
2019-03-20T10:37:54.547Z,1.87
2019-03-20T10:40:19.294Z,1.90
2019-03-20T10:42:39.797Z,1.80
2019-03-20T10:44:59.748Z,1.50
2019-03-20T10:47:19.945Z,1.50
2019-03-20T10:49:40.252Z,1.73
2019-03-20T10:52:00.516Z,1.67
2019-03-20T10:54:23.375Z,1.77
2019-03-20T10:56:43.665Z,1.87
2019-03-20T10:59:04.177Z,1.73
2019-03-20T11:01:25.484Z,2.07
2019-03-20T11:03:45.818Z,2.10
2019-03-20T11:06:06.269Z,2.00
2019-03-20T11:08:26.561Z,2.10
2019-03-20T11:10:46.950Z,1.80
2019-03-20T11:13:07.246Z,1.87
2019-03-20T11:15:29.561Z,1.73
2019-03-20T11:17:49.681Z,1.93
2019-03-20T11:20:12.524Z,1.80
2019-03-20T11:22:32.897Z,1.80
2019-03-20T11:24:53.150Z,1.57
2019-03-20T11:27:13.378Z,1.90
2019-03-20T11:29:33.689Z,1.73
2019-03-20T11:31:53.945Z,1.73
2019-03-20T11:34:14.291Z,1.70
2019-03-20T11:36:34.513Z,1.80
2019-03-20T11:38:54.778Z,1.87
2019-03-20T11:41:15.101Z,1.93
2019-03-20T11:43:35.337Z,1.90
2019-03-20T11:45:55.539Z,1.90
2019-03-20T11:48:16.240Z,1.98
2019-03-20T11:50:41.100Z,2.03
2019-03-20T11:53:01.699Z,1.57
2019-03-20T11:55:23.622Z,2.08
2019-03-20T11:57:43.783Z,1.82
2019-03-20T12:00:05.912Z,1.67
2019-03-20T12:02:28.334Z,2.10
2019-03-20T12:04:47.553Z,2.00
2019-03-20T12:07:07.582Z,1.85
2019-03-20T12:09:27.818Z,1.77
2019-03-20T12:11:48.175Z,1.70
2019-03-20T12:14:08.479Z,2.17
2019-03-20T12:16:28.728Z,1.80
2019-03-20T12:18:48.967Z,2.00
2019-03-20T12:21:09.281Z,1.77
2019-03-20T12:23:29.508Z,1.70
2019-03-20T12:25:49.773Z,1.67
2019-03-20T12:28:09.998Z,1.80
2019-03-20T12:30:31.538Z,1.80
2019-03-20T12:32:51.965Z,1.80
2019-03-20T12:35:15.065Z,1.73
2019-03-20T12:39:54.189Z,1.70
2019-03-20T12:42:14.218Z,1.80
2019-03-20T12:44:34.177Z,1.87
2019-03-20T12:46:54.383Z,1.60
2019-03-20T12:49:14.695Z,1.87
2019-03-20T12:51:34.948Z,1.80
2019-03-20T12:53:56.657Z,1.70
2019-03-20T12:56:16.909Z,1.87
2019-03-20T12:58:37.203Z,2.10
2019-03-20T13:00:57.470Z,1.90
2019-03-20T13:03:17.806Z,2.20
2019-03-20T13:05:38.062Z,1.90
2019-03-20T13:08:05.460Z,2.10
2019-03-20T13:10:25.237Z,2.00
2019-03-20T13:12:45.645Z,1.83
2019-03-20T13:15:09.195Z,2.07
2019-03-20T13:17:29.576Z,1.93
2019-03-20T13:19:49.900Z,2.00
2019-03-20T13:22:10.205Z,1.83
2019-03-20T13:24:30.528Z,2.57
2019-03-20T13:26:51.265Z,1.87
2019-03-20T13:29:11.506Z,1.90
2019-03-20T13:31:31.837Z,1.93
2019-03-20T13:33:52.063Z,2.07
2019-03-20T13:36:12.411Z,1.90
2019-03-20T13:38:32.752Z,1.80
2019-03-20T13:40:52.999Z,1.97
2019-03-20T13:43:13.481Z,1.87
2019-03-20T13:45:33.887Z,2.07
2019-03-20T13:47:54.187Z,1.80
2019-03-20T13:50:15.507Z,2.23
2019-03-20T13:52:35.728Z,1.80
2019-03-20T13:54:56.888Z,2.20
2019-03-20T13:57:18.304Z,1.93
2019-03-20T13:59:38.779Z,1.57
2019-03-20T14:02:00.805Z,1.40
2019-03-20T14:04:21.387Z,2.10
2019-03-20T14:06:41.763Z,1.60
2019-03-20T14:09:01.957Z,2.03
2019-03-20T14:11:23.889Z,2.03
2019-03-20T14:13:57.092Z,1.60
2019-03-20T14:16:17.338Z,2.20
2019-03-20T14:18:37.302Z,2.33
2019-03-20T14:20:57.403Z,1.90
2019-03-20T14:23:17.464Z,1.80
2019-03-20T14:25:37.491Z,2.00
2019-03-20T14:27:57.521Z,2.17
2019-03-20T14:30:23.292Z,2.00
2019-03-20T14:32:43.328Z,2.10
2019-03-20T14:35:03.321Z,2.35
2019-03-20T14:37:23.294Z,2.17
2019-03-20T14:39:43.274Z,2.10
2019-03-20T14:42:03.374Z,1.90
2019-03-20T14:44:23.611Z,2.22
2019-03-20T14:46:43.685Z,2.70
2019-03-20T14:49:03.825Z,2.35
2019-03-20T14:51:23.913Z,2.40
2019-03-20T14:53:43.822Z,2.27
2019-03-20T14:56:03.786Z,2.20
2019-03-20T14:58:23.917Z,2.33
2019-03-20T15:00:44.206Z,2.43
2019-03-20T15:03:04.603Z,2.20
2019-03-20T15:05:25.173Z,2.60
2019-03-20T15:07:45.660Z,2.30
2019-03-20T15:10:08.895Z,2.63
2019-03-20T15:14:47.850Z,2.62
2019-03-20T15:17:07.874Z,2.83
2019-03-20T15:19:28.584Z,2.40
2019-03-20T15:21:48.461Z,2.65
2019-03-20T15:24:08.381Z,2.72
2019-03-20T15:26:28.939Z,2.43
2019-03-20T15:28:49.078Z,2.80
2019-03-20T15:31:10.363Z,3.27
2019-03-20T15:33:30.663Z,3.43
2019-03-20T15:35:51.056Z,2.60
2019-03-20T15:38:11.568Z,2.57
2019-03-20T15:40:32.066Z,2.70
2019-03-20T15:42:52.349Z,2.53
2019-03-20T15:45:15.323Z,2.87
2019-03-20T15:47:35.579Z,2.72
2019-03-20T15:49:55.589Z,2.45
2019-03-20T15:52:16.127Z,3.00
2019-03-20T15:54:36.088Z,2.55
2019-03-20T15:56:56.192Z,3.08
2019-03-20T15:59:16.799Z,3.00
2019-03-20T16:01:37.359Z,3.15
2019-03-20T16:03:57.721Z,2.80
2019-03-20T16:06:18.254Z,3.17
2019-03-20T16:08:38.862Z,2.75
2019-03-20T16:11:06.632Z,3.30
2019-03-20T16:13:23.197Z,3.10
2019-03-20T16:15:43.900Z,2.62
2019-03-20T16:18:04.973Z,3.10
2019-03-20T16:20:25.889Z,2.50
2019-03-20T16:22:46.717Z,2.47
2019-03-20T16:25:10.258Z,2.60
2019-03-20T16:27:30.845Z,2.75
2019-03-20T16:29:51.506Z,2.55
2019-03-20T16:32:12.315Z,3.35
2019-03-20T16:34:32.906Z,2.40
2019-03-20T16:36:53.493Z,2.72
2019-03-20T16:39:15.327Z,2.60
2019-03-20T16:41:37.028Z,2.83
2019-03-20T16:43:57.892Z,2.90
2019-03-20T16:46:20.403Z,2.60
2019-03-20T16:48:42.171Z,2.90
2019-03-20T16:51:04.748Z,3.00
2019-03-20T16:53:27.663Z,3.12
2019-03-20T16:55:48.187Z,2.83
2019-03-20T16:58:10.929Z,3.15
2019-03-20T17:00:35.520Z,3.10
2019-03-20T17:02:57.706Z,3.12
2019-03-20T17:05:20.352Z,3.58
2019-03-20T17:07:43.188Z,2.35
2019-03-20T17:12:26.638Z,3.42
2019-03-20T17:14:48.795Z,3.55
2019-03-20T17:17:10.942Z,2.60
2019-03-20T17:19:32.261Z,2.73
2019-03-20T17:21:54.533Z,3.15
2019-03-20T17:24:16.518Z,3.75
2019-03-20T17:26:38.871Z,3.77
2019-03-20T17:29:08.594Z,2.60
2019-03-20T17:31:24.046Z,2.80
2019-03-20T17:33:45.724Z,4.25
2019-03-20T17:36:09.492Z,3.27
2019-03-20T17:38:32.435Z,3.65
2019-03-20T17:43:15.423Z,4.05
2019-03-20T17:45:37.512Z,4.72
2019-03-20T17:47:58.744Z,4.55
2019-03-20T17:51:31.986Z,5.60
2019-03-20T17:53:13.042Z,5.87
2019-03-20T17:55:34.680Z,5.25
2019-03-20T17:57:55.817Z,6.03
2019-03-20T18:00:21.108Z,5.92
2019-03-20T18:02:42.652Z,5.53
2019-03-20T18:05:07.231Z,3.98
2019-03-20T18:07:28.978Z,5.55
2019-03-20T18:09:50.873Z,6.40
2019-03-20T18:12:12.377Z,5.42
2019-03-20T18:14:38.721Z,7.30
2019-03-20T18:17:00.347Z,6.30
2019-03-20T18:19:21.966Z,7.53
2019-03-20T18:21:49.913Z,6.35
2019-03-20T18:24:24.978Z,6.40
2019-03-20T18:26:47.465Z,6.67
2019-03-20T18:29:09.445Z,6.55
2019-03-20T18:31:30.782Z,7.62
2019-03-20T18:33:52.177Z,8.15
2019-03-20T18:36:14.032Z,8.15
2019-03-20T18:38:35.432Z,7.28
2019-03-20T18:40:57.120Z,7.05
2019-03-20T18:43:19.747Z,5.30
2019-03-20T18:45:41.801Z,8.00
2019-03-20T18:48:03.986Z,8.15
2019-03-20T18:50:26.735Z,8.80
2019-03-20T18:52:50.580Z,8.33
2019-03-20T18:55:15.337Z,9.15
2019-03-20T18:57:37.073Z,8.15
2019-03-20T19:00:00.031Z,8.75
2019-03-20T19:02:22.004Z,8.93
2019-03-20T19:04:49.143Z,8.68
2019-03-20T19:07:14.759Z,8.73
2019-03-20T19:09:36.178Z,8.15
2019-03-20T19:12:08.119Z,9.10
2019-03-20T19:14:25.523Z,8.63
2019-03-20T19:16:47.815Z,9.50
2019-03-20T19:19:08.964Z,9.10
2019-03-20T19:21:33.235Z,9.00
2019-03-20T19:23:54.537Z,9.50
2019-03-20T19:26:16.080Z,7.70
2019-03-20T19:28:37.667Z,7.53
2019-03-20T19:31:00.900Z,7.67
2019-03-20T19:33:23.033Z,7.50
2019-03-20T19:35:50.736Z,5.07
2019-03-20T19:38:13.425Z,7.95
2019-03-20T19:40:37.064Z,7.83
2019-03-20T19:43:00.321Z,7.80
2019-03-20T19:45:28.610Z,6.83
2019-03-20T19:47:50.864Z,8.00
2019-03-20T19:50:19.094Z,6.30
2019-03-20T19:52:42.050Z,7.50
2019-03-20T19:55:18.445Z,7.67
2019-03-20T19:57:41.328Z,7.50
2019-03-20T20:00:08.075Z,7.97
2019-03-20T20:02:31.783Z,8.53
2019-03-20T20:04:53.149Z,7.72
2019-03-20T20:07:18.192Z,8.38
2019-03-20T20:09:39.004Z,8.63
2019-03-20T20:12:15.482Z,8.15
2019-03-20T20:14:36.952Z,8.63
2019-03-20T20:16:58.206Z,7.97
2019-03-20T20:19:20.485Z,7.65
2019-03-20T20:21:41.455Z,8.25
2019-03-20T20:24:02.753Z,8.33
2019-03-20T20:26:23.638Z,7.85
2019-03-20T20:28:44.672Z,8.15
2019-03-20T20:31:06.236Z,8.68
2019-03-20T20:33:27.584Z,8.78
2019-03-20T20:35:48.961Z,8.90
2019-03-20T20:38:10.062Z,9.18
2019-03-20T20:40:32.191Z,9.53
2019-03-20T20:42:53.890Z,9.90
2019-03-20T20:45:15.652Z,11.00
2019-03-20T20:47:37.012Z,10.70
2019-03-20T20:50:00.962Z,9.80
2019-03-20T20:52:22.346Z,9.35
2019-03-20T20:54:44.328Z,8.53
2019-03-20T20:57:07.744Z,8.20
2019-03-20T20:59:29.511Z,9.35
2019-03-20T21:01:51.431Z,8.23
2019-03-20T21:04:12.958Z,8.70
2019-03-20T21:06:34.689Z,9.43
2019-03-20T21:08:57.009Z,10.15
2019-03-20T21:11:18.677Z,9.13
2019-03-20T21:13:39.502Z,9.03
2019-03-20T21:16:01.054Z,9.43
2019-03-20T21:18:44.766Z,8.80
2019-03-20T21:21:06.247Z,9.48
2019-03-20T21:23:40.622Z,9.68
2019-03-20T21:26:03.011Z,8.95
2019-03-20T21:28:52.936Z,10.05
2019-03-20T21:31:15.478Z,9.18
2019-03-20T21:33:56.425Z,9.53
2019-03-20T21:36:35.421Z,8.65
2019-03-20T21:38:55.979Z,7.70
2019-03-20T21:41:20.086Z,8.53
2019-03-20T21:43:59.911Z,8.80
2019-03-20T21:46:48.626Z,8.00
2019-03-20T21:49:09.288Z,8.98
2019-03-20T21:51:36.116Z,8.93
2019-03-20T21:54:17.021Z,9.48
2019-03-20T21:56:49.960Z,9.50
2019-03-20T21:59:20.624Z,10.00
2019-03-20T22:01:59.566Z,9.28
2019-03-20T22:04:27.799Z,8.78
2019-03-20T22:07:14.809Z,9.03
2019-03-20T22:10:18.864Z,8.70
2019-03-20T22:12:51.771Z,8.08
2019-03-20T22:15:56.459Z,9.00
2019-03-20T22:18:56.723Z,9.58
2019-03-20T22:22:03.267Z,9.38
2019-03-20T22:24:51.877Z,8.75
2019-03-20T22:28:26.271Z,9.05
2019-03-20T22:30:32.524Z,8.50
2019-03-20T22:33:35.931Z,8.15
2019-03-20T22:36:25.457Z,8.00
2019-03-20T22:38:52.836Z,9.45
2019-03-20T22:41:24.436Z,8.53
2019-03-20T22:44:04.899Z,7.97
2019-03-20T22:50:21.504Z,8.30
2019-03-20T22:56:02.484Z,8.05
2019-03-20T22:58:51.878Z,8.05
2019-03-20T23:04:56.631Z,7.95
2019-03-20T23:07:35.928Z,7.47
2019-03-20T23:10:06.150Z,8.45
2019-03-20T23:12:52.607Z,8.00
2019-03-20T23:15:03.368Z,8.43
2019-03-20T23:19:52.980Z,8.03
2019-03-20T23:22:20.252Z,8.15
2019-03-20T23:24:50.996Z,7.50
2019-03-20T23:27:18.303Z,7.50
2019-03-20T23:29:47.562Z,7.95
2019-03-20T23:32:17.093Z,7.78
2019-03-20T23:35:02.452Z,7.35
2019-03-20T23:37:48.769Z,7.00
2019-03-20T23:43:17.625Z,7.55
2019-03-20T23:48:31.274Z,7.92
2019-03-20T23:51:16.778Z,8.45
2019-03-20T23:53:40.240Z,7.95
2019-03-20T23:56:11.171Z,7.85
2019-03-20T23:58:37.371Z,8.10
